CYLW/YLW METAR and TAF weather

Enter ICAO airport designator
Station Type Date Time Source
CYLW METAR 2019/06/26 22:15 UTC NOAA

CYLW 262215Z AUTO VRB08KT 9SM FEW050 SCT100 23/07 A2983 RMK SLP102 DENSITY ALT 2700FT


Station Type Date Time Source
CYLW Decoded METAR 2019/06/26 22:15 UTC NOAA

Kelowna Airport, Canada (CYLW) 49-58N 119-23W 430M
Jun 26, 2019 - 06:15 PM EDT / 2019.06.26 2215 UTC
Wind: Variable at 9 MPH (8 KT):0
Visibility: 9 mile(s):0
Sky conditions: partly cloudy
Temperature: 73 F (23 C)
Dew Point: 44 F (7 C)
Relative Humidity: 35%
Pressure (altimeter): 29.83 in. Hg (1010 hPa)
ob: CYLW 262215Z AUTO VRB08KT 9SM FEW050 SCT100 23/07 A2983 RMK SLP102 DENSITY ALT 2700FT
cycle: 22

Station Type Date Time Source
CYLW TAF 2019/06/26 19:42 UTC NOAA

TAF TAF CYLW 261838Z 2619/2707 35012G22KT P6SM FEW130
TEMPO 2619/2621 P6SM VCTS BKN130CB
FM262100 34010G20KT P6SM BKN100
TEMPO 2621/2703 P6SM -SHRA PROB40 2621/2703 VRB15G25KT 4SM TSRA BKN060CB
FM270300 VRB03KT P6SM SCT100
RMK FCST BASED ON AUTO OBS. NXT FCST BY 270100Z

Example: see airport list